Time,TemperatureF,DewpointF,PressureIn,WindDirection,WindDirectionDegrees,WindSpeedMPH,WindSpeedGustMPH,Humidity,HourlyPrecipIn,Conditions,Clouds,dailyrainin,SoftwareType,DateUTC
2013-02-12 00:00:00,-5.0,-99.9,-100.00,North,1,0.0,0.0,-999,-99.99,,,0.00,,2013-02-12 07:00:00,
2013-02-12 00:52:00,-5.0,-99.9,-100.00,North,1,0.0,0.0,-999,-99.99,,,0.00,,2013-02-12 07:52:00,
2013-02-12 01:00:00,-7.0,-99.9,-100.00,North,-999,-999.0,-999.0,-999,-99.99,,,0.00,,2013-02-12 08:00:00,
2013-02-12 01:52:00,-7.0,-99.9,-100.00,North,-999,-999.0,-999.0,-999,-99.99,,,0.00,,2013-02-12 08:52:00,
2013-02-12 02:00:00,-8.0,-99.9,-100.00,North,1,0.0,0.0,-999,-99.99,,,0.00,,2013-02-12 09:00:00,
2013-02-12 02:52:00,-8.0,-99.9,-100.00,North,1,0.0,0.0,-999,-99.99,,,0.00,,2013-02-12 09:52:00,
2013-02-12 03:00:00,-9.0,-99.9,-100.00,North,1,0.0,0.0,-999,-99.99,,,0.00,,2013-02-12 10:00:00,
2013-02-12 03:52:00,-9.0,-99.9,-100.00,North,1,0.0,0.0,-999,-99.99,,,0.00,,2013-02-12 10:52:00,
2013-02-12 04:00:00,-13.0,-99.9,-100.00,North,-999,-999.0,-999.0,-999,-99.99,,,-99.99,,2013-02-12 11:00:00,
2013-02-12 04:53:00,-13.0,-99.9,-100.00,North,-999,-999.0,-999.0,-999,-99.99,,,-99.99,,2013-02-12 11:53:00,
2013-02-12 05:00:00,-8.0,-99.9,-100.00,North,2,0.0,0.0,-999,-99.99,,,0.00,,2013-02-12 12:00:00,
2013-02-12 05:53:00,-8.0,-99.9,-100.00,North,2,0.0,0.0,-999,-99.99,,,0.00,,2013-02-12 12:53:00,
2013-02-12 06:00:00,-7.0,-99.9,-100.00,North,2,0.0,0.0,-999,-99.99,,,0.00,,2013-02-12 13:00:00,
2013-02-12 06:52:00,-7.0,-99.9,-100.00,North,2,0.0,0.0,-999,-99.99,,,0.00,,2013-02-12 13:52:00,
2013-02-12 07:00:00,-10.0,-99.9,-100.00,North,-999,-999.0,-999.0,-999,-99.99,,,0.00,,2013-02-12 14:00:00,
2013-02-12 07:52:00,-10.0,-99.9,-100.00,North,-999,-999.0,-999.0,-999,-99.99,,,0.00,,2013-02-12 14:52:00,
2013-02-12 08:00:00,-7.0,-99.9,-100.00,North,2,0.0,0.0,-999,-99.99,,,0.00,,2013-02-12 15:00:00,
2013-02-12 08:52:00,-7.0,-99.9,-100.00,North,2,0.0,0.0,-999,-99.99,,,0.00,,2013-02-12 15:52:00,
2013-02-12 09:00:00,5.0,-99.9,-100.00,North,1,0.0,0.0,-999,-99.99,,,0.00,,2013-02-12 16:00:00,
2013-02-12 09:52:00,5.0,-99.9,-100.00,North,1,0.0,0.0,-999,-99.99,,,0.00,,2013-02-12 16:52:00,
2013-02-12 10:00:00,15.0,-99.9,-100.00,North,1,0.0,0.0,-999,-99.99,,,0.00,,2013-02-12 17:00:00,
2013-02-12 10:52:00,15.0,-99.9,-100.00,North,1,0.0,0.0,-999,-99.99,,,0.00,,2013-02-12 17:52:00,
2013-02-12 11:00:00,16.0,-99.9,-100.00,North,0,1.0,8.0,-999,-99.99,,,0.00,,2013-02-12 18:00:00,
2013-02-12 11:52:00,16.0,-99.9,-100.00,North,0,1.0,8.0,-999,-99.99,,,0.00,,2013-02-12 18:52:00,
2013-02-12 12:00:00,19.0,-99.9,-100.00,North,0,4.0,12.0,-999,-99.99,,,0.00,,2013-02-12 19:00:00,
2013-02-12 12:52:00,19.0,-99.9,-100.00,North,0,4.0,12.0,-999,-99.99,,,0.00,,2013-02-12 19:52:00,
2013-02-12 13:00:00,22.0,-99.9,-100.00,North,0,5.0,10.0,-999,-99.99,,,0.00,,2013-02-12 20:00:00,
2013-02-12 13:52:00,22.0,-99.9,-100.00,North,0,5.0,10.0,-999,-99.99,,,0.00,,2013-02-12 20:52:00,
2013-02-12 14:00:00,23.0,-99.9,-100.00,North,0,2.0,12.0,-999,-99.99,,,-99.99,,2013-02-12 21:00:00,
2013-02-12 14:52:00,23.0,-99.9,-100.00,North,0,2.0,12.0,-999,-99.99,,,-99.99,,2013-02-12 21:52:00,
2013-02-12 15:00:00,21.0,-99.9,-100.00,North,-999,-999.0,-999.0,-999,-99.99,,,0.00,,2013-02-12 22:00:00,
2013-02-12 15:52:00,21.0,-99.9,-100.00,North,-999,-999.0,-999.0,-999,-99.99,,,0.00,,2013-02-12 22:52:00,
2013-02-12 16:00:00,21.0,-99.9,-100.00,North,-999,-999.0,-999.0,-999,-99.99,,,0.00,,2013-02-12 23:00:00,
2013-02-12 16:53:00,21.0,-99.9,-100.00,North,-999,-999.0,-999.0,-999,-99.99,,,0.00,,2013-02-12 23:53:00,
2013-02-12 17:00:00,12.0,-99.9,-100.00,North,-999,-999.0,-999.0,-999,-99.99,,,0.00,,2013-02-13 00:00:00,
2013-02-12 17:52:00,12.0,-99.9,-100.00,North,-999,-999.0,-999.0,-999,-99.99,,,0.00,,2013-02-13 00:52:00,
2013-02-12 18:00:00,8.0,-99.9,-100.00,North,-999,-999.0,-999.0,-999,-99.99,,,0.00,,2013-02-13 01:00:00,
2013-02-12 18:52:00,8.0,-99.9,-100.00,North,-999,-999.0,-999.0,-999,-99.99,,,0.00,,2013-02-13 01:52:00,
2013-02-12 21:00:00,-4.0,-99.9,-100.00,North,-999,-999.0,-999.0,-999,-99.99,,,-99.99,,2013-02-13 04:00:00,
2013-02-12 21:52:00,-4.0,-99.9,-100.00,North,-999,-999.0,-999.0,-999,-99.99,,,-99.99,,2013-02-13 04:52:00,
2013-02-12 23:00:00,2.0,-99.9,-100.00,North,1,0.0,0.0,-999,-99.99,,,0.00,,2013-02-13 06:00:00,
2013-02-12 23:52:00,2.0,-99.9,-100.00,North,1,0.0,0.0,-999,-99.99,,,0.00,,2013-02-13 06:52:00,